Tiempo atmosférico en la estación meteorológica de Cádiz, Cadiz (1 m.)



Fecha
DESCASC
Temp. máxima en grados centígrados (hora)
DESCASC
Temp. mínima en grados centígrados (hora)
DESCASC
Temp. media en grados centígrados
DESCASC
Racha de viento máxima en m/sg (hora)
DESCASC
Velocidad máxima media en intervalos de 10 minutos(hora)
DESCASC
Precipitaciones diarias en mm
DESCASC
Precipitaciones de 00:00 a 06:00 en mm
DESCASC
Precipitaciones de 06:00 a 12:00 en mm
DESCASC
Precipitaciones de 12:00 a 18:00 en mm
DESCASC
Precipitaciones de 18:00 a 24:00 en mm
DESCASC
18-01-2018 17.3 (14:50) 11.2 (02:20) 14.2 17.22 (11:50) 11.67 (11:50) 0 0 0 0 0
17-01-2018 15.9 (18:00) 10.5 (06:30) 13.2 12.22 (13:30) 9.17 (13:30) 0 0 0 0 0
16-01-2018 15.9 (15:40) 6.8 (07:50) 11.3 6.11 (23:20) 5 (17:50) 0 0 0 0 0
15-01-2018 13.5 (15:20) 6.4 (08:50) 10 10.56 (08:30) 8.61 (08:30) 0 0 0 0 0
14-01-2018 13.1 (17:00) 10 (00:00) 11.6 8.33 (15:20) 5 (21:20) 7.8 0.5 7.3 0 0
13-01-2018 14.7 (15:40) 8.3 (00:00) 11.5 11.11 (13:00) 6.39 (16:20) 6.7 0 0 5.5 1.2
12-01-2018 13.6 (16:40) 8.3 (00:00) 11 6.39 (00:50) 5 (00:50) 0 0 0 0 0
11-01-2018 15.2 (16:40) 10.9 (00:00) 13 9.44 (12:30) 6.11 (15:10) 0 0 0 0 0
10-01-2018 17.6 (16:30) 12.7 (00:00) 15.2 11.94 (00:10) 7.22 (00:10) 1.3 0.5 0 0.2 0.6
09-01-2018 14.4 (22:00) 7.1 (00:00) 10.7 18.89 (23:10) 11.11 (23:20) 13.1 0 0 8.3 4.8
08-01-2018 12.3 (05:00) 7.8 (00:00) 10.1 10 (13:50) 7.78 (14:00) 1.1 0.3 0.8 0 0
07-01-2018 12.4 (14:30) 8.4 (00:00) 10.4 8.61 (07:10) 6.11 (02:30) 0 0 0 0 0
06-01-2018 15.4 (00:20) 9 (00:00) 12.2 14.72 (05:40) 11.11 (05:50) 21.1 20.7 0.4 0 0
05-01-2018 17.3 (15:10) 14.2 (00:00) 15.7 12.22 (19:50) 7.78 (20:20) 6.1 0 0 0 6.1
04-01-2018 16.3 (14:20) 12 (07:30) 14.1 7.5 (01:30) 6.11 (01:30) 0 0 0 0 0
03-01-2018 17 (15:30) 11.8 (00:00) 14.4 11.11 (12:40) 8.89 (12:50) 0 0 0 0 0
02-01-2018 15.7 (16:20) 10.6 (00:00) 13.2 8.33 (15:30) 6.67 (10:10) 0 0 0 0 0
01-01-2018 15.6 (15:20) 10.6 (00:00) 13.1 10.56 (08:50) 8.06 (08:50) 0 0 0 0 0
31-12-2017 19 (15:10) 13.9 (00:00) 16.4 8.89 (23:30) 7.22 (23:40) 0 0 0 0 0
30-12-2017 19.5 (14:20) 12.8 (00:00) 16.2 5.83 (08:00) 4.17 (04:50) 0 0 0 0 0
29-12-2017 17.7 (15:30) 15.3 (00:00) 16.5 8.06 (13:30) 4.72 (13:40) 0 0 0 0 0
28-12-2017 17.9 (13:10) 15.3 (00:00) 16.6 10 (05:50) 6.39 (05:50) 0 0 0 0 0
27-12-2017 17.1 (15:10) 13.8 (00:00) 15.5 17.5 (09:00) 9.44 (05:30) 3.6 0 3.6 0 0
26-12-2017 16.3 (00:30) 13.8 (00:00) 15 11.67 (22:30) 7.22 (22:40) 5.6 3 2.6 0 0
25-12-2017 17.4 (15:40) 12 (00:00) 14.7 10.28 (11:20) 6.67 (10:10) 2.6 0 0.5 2.1 0
24-12-2017 18.2 (14:20) 11.7 (00:00) 15 10.28 (13:00) 8.06 (12:50) 0 0 0 0 0
23-12-2017 16.7 (15:50) 7.8 (00:00) 12.3 8.33 (14:50) 5.83 (13:20) 0 0 0 0 0
22-12-2017 16.3 (16:40) 9.1 (00:00) 12.7 4.44 (01:40) 3.61 (13:00) 0 0 0 0 0
21-12-2017 18 (14:30) 7.3 (00:00) 12.7 6.67 (17:40) 5.28 (17:20) 0 0 0 0 0

Gráficas

Temp. máximas Temp. mínimas Temp. medias Precipitaciones Rachas de viento máximas Velocidades máximas media en intervalos de 10 minutos

Datos horarios

Fecha y hora oficial Temperatura (ºC) Velocidad del viento (km/h) Dirección del viento Racha (km/h) Dirección de racha Precipitación (mm) Presión (hPa) Tendencia (hPa) Humedad (%)
2018-01-19 23:00:00 13.3 3 Sur 5 Sudeste 0 1025.5 2.1 88
2018-01-19 22:00:00 13.6 0 Calma 10 Oeste 0 1025.3 2.7 85
2018-01-19 21:00:00 13.8 5 Oeste 14 Sudoeste 0 1024.4 2.5 81
2018-01-19 20:00:00 13.8 10 Sudoeste 15 Oeste 0 1023.4 2 76
2018-01-19 19:00:00 14.2 8 Sudoeste 14 Sudoeste 0 1022.6 1.2 73
2018-01-19 18:00:00 15.7 8 Sudoeste 12 Sudoeste 0 1021.9 1 66
2018-01-19 17:00:00 17.4 5 Sudoeste 9 Sudoeste 0 1021.4 0.3 59
2018-01-19 16:00:00 15.7 5 Norte 10 Noroeste 0 1021.4 0.3 66
2018-01-19 15:00:00 16.9 7 Oeste 10 Oeste 0 1020.9 -0.4 56
2018-01-19 14:00:00 16.2 5 Oeste 10 Noroeste 0 1021.1 0.2 61
2018-01-19 13:00:00 15.5 0 Calma 6 Este 0 1021.1 0.9 66
2018-01-19 12:00:00 13.9 0 Calma 5 Este 0 1021.3 1.9 73
2018-01-19 11:00:00 12.1 0 Calma 4 Nordeste 0 1020.9 2.1 82
2018-01-19 10:00:00 10.6 3 Este 7 Este 0 1020.2 2 85
2018-01-19 09:00:00 10.2 5 Nordeste 11 Norte 0 1019.4 1.5 87
2018-01-19 08:00:00 10.2 7 Norte 11 Norte 0 1018.8 0.9 86
2018-01-19 07:00:00 10.9 8 Norte 14 Norte 0 1018.2 -0.1 83
2018-01-19 06:00:00 11.5 11 Norte 14 Norte 0 1017.9 -0.6 83
2018-01-19 05:00:00 12.4 6 Norte 11 Norte 0 1017.9 -0.9 78
2018-01-19 04:00:00 12.8 3 Nordeste 8 Norte 0 1018.3 -0.6 75
2018-01-19 03:00:00 13.1 3 Sudeste 7 Nordeste 0 1018.5 -0.2 69
2018-01-19 02:00:00 12.8 3 Nordeste 8 Este 0 1018.8 0.5 78
2018-01-19 01:00:00 13.3 4 Sur 12 Sudeste 0 1018.9 0.5 80
2018-01-19 00:00:00 13.4 8 Este 11 Este 0 1018.7 0.3 77
2018-01-18 23:00:00 13.4 4 Oeste 6 Oeste 0 1018.3 -0.3 65
2018-01-18 22:00:00 13.6 4 Norte 8 Noroeste 0 1018.4 0.1 67
2018-01-18 21:00:00 14.2 2 Nordeste 10 Norte 0 1018.4 0.1 57
2018-01-18 20:00:00 14.3 5 Nordeste 11 Este 0 1018.6 0.4 55
2018-01-18 19:00:00 14.9 6 Nordeste 27 Este 0 1018.3 0 58
2018-01-18 18:00:00 15.8 19 Este 36 Este 0 1018.3 -0.3 57
2018-01-18 17:00:00 16.5 27 Este 44 Este 0 1018.2 -1.1 54
2018-01-18 16:00:00 16.9 34 Este 49 Este 0 1018.3 -1.5 54
2018-01-18 15:00:00 16.9 38 Este 55 Este 0 1018.6 -2 52
2018-01-18 14:00:00 16.8 37 Este 59 Este 0 1019.3 -1.3 54
2018-01-18 13:00:00 16.3 41 Este 59 Este 0 1019.8 -0.4 60
2018-01-18 12:00:00 15.9 41 Este 62 Este 0 1020.6 0.8 65
2018-01-18 11:00:00 15.4 39 Este 54 Este 0 1020.6 1.1 66
2018-01-18 10:00:00 14.3 33 Este 47 Este 0 1020.2 1.3 70
2018-01-18 09:00:00 14 25 Este 42 Este 0 1019.8 0.7 69
2018-01-18 08:00:00 12.8 9 Este 41 Sudeste 0 1019.5 0.4 63
2018-01-18 07:00:00 13.6 23 Este 33 Este 0 1018.9 -0.4 66
2018-01-18 06:00:00 12.1 0 Calma 23 Este 0 1019.1 -0.3 69
2018-01-18 05:00:00 12.3 8 Este 14 Nordeste 0 1019.1 -0.5 69
2018-01-18 04:00:00 12.4 6 Nordeste 16 Este 0 1019.3 -0.9 75
2018-01-18 03:00:00 12 8 Nordeste 21 Este 0 1019.4 -0.4 77
2018-01-18 02:00:00 11.4 5 Este 15 Este 0 1019.6 -0.7 80
2018-01-18 01:00:00 11.9 4 Este 10 Nordeste 0 1020.2 -0.1 78
2018-01-18 00:00:00 12.5 3 Nordeste 15 Nordeste 0 1019.8 -0.2 75
2018-01-17 23:00:00 12.2 6 Nordeste 10 Nordeste 0 1020.3 0.5 72
2018-01-17 22:00:00 13.1 7 Nordeste 15 Nordeste 0 1020.3 0.3 69
2018-01-17 21:00:00 14.3 12 Nordeste 22 Norte 0 1020 0 66
2018-01-17 20:00:00 15.1 19 Norte 28 Norte 0 1019.8 -0.2 65
2018-01-17 19:00:00 15.1 17 Norte 24 Norte 0 1020 -0.4 69
2018-01-17 18:00:00 15.7 17 Nordeste 29 Norte 0 1020 -0.9 66
2018-01-17 17:00:00 15.8 21 Norte 32 Norte 0 1020 -1.7 66
2018-01-17 16:00:00 15.3 26 Norte 39 Norte 0 1020.4 -2.3 68
2018-01-17 15:00:00 14.3 26 Norte 41 Norte 0 1020.9 -2.9 70
2018-01-17 14:00:00 14.1 30 Norte 44 Norte 0 1021.7 -2.4 71
2018-01-17 13:00:00 13.8 29 Norte 39 Norte 0 1022.7 -1.2 74
2018-01-17 12:00:00 13.3 22 Norte 33 Norte 0 1023.8 0.1 76
2018-01-17 11:00:00 12.5 25 Norte 38 Norte 0 1024.1 0.7 80
2018-01-17 10:00:00 11.7 30 Norte 42 Norte 0 1023.9 -0.1 81
2018-01-17 09:00:00 11.4 27 Norte 35 Norte 0 1023.7 -0.4 86
2018-01-17 08:00:00 11.2 26 Norte 31 Norte 0 1023.4 -0.8 86
2018-01-17 07:00:00 11 16 Norte 26 Norte 0 1024 -0.6 86
2018-01-17 06:00:00 10.8 24 Norte 32 Norte 0 1024.1 -0.5 87
2018-01-17 05:00:00 11.6 28 Norte 37 Norte 0 1024.2 -1 84
2018-01-17 04:00:00 11.9 27 Norte 37 Norte 0 1024.6 -1.4 82
2018-01-17 03:00:00 12 31 Norte 40 Norte 0 1024.6 -2.1 81
2018-01-17 02:00:00 11.9 26 Norte 32 Norte 0 1025.2 -1.2 78
2018-01-17 01:00:00 12.1 22 Noroeste 30 Noroeste 0 1026 -0.6 77
2018-01-17 00:00:00 12.6 15 Norte 22 Noroeste 0 1026.7 0.4 75
2018-01-16 23:00:00 13.1 15 Noroeste 19 Noroeste 0 1026.4 0 75
2018-01-16 22:00:00 12.8 14 Norte 18 Noroeste 0 1026.6 0.4 76
2018-01-16 21:00:00 12.9 11 Noroeste 14 Noroeste 0 1026.3 -0.1 74
2018-01-16 20:00:00 13.2 7 Norte 14 Norte 0 1026.4 -0.3 72
2018-01-16 19:00:00 13.8 13 Norte 19 Norte 0 1026.2 -0.7 71
2018-01-16 18:00:00 14.1 17 Norte 21 Norte 0 1026.4 -1.7 68
2018-01-16 17:00:00 15.1 10 Norte 17 Norte 0 1026.7 -2.4 65
2018-01-16 16:00:00 15.7 13 Norte 19 Nordeste 0 1026.9 -3.3 49
2018-01-16 15:00:00 15 5 Noroeste 9 Noroeste 0 1028.1 -2.8 59
2018-01-16 14:00:00 13.7 6 Norte 10 Norte 0 1029.1 -1.9 65
2018-01-16 13:00:00 12.3 12 Norte 19 Norte 0 1030.2 -0.3 66
2018-01-16 12:00:00 10.9 6 Nordeste 14 Norte 0 1030.9 0.5 74
2018-01-16 11:00:00 9.1 11 Norte 15 Norte 0 1031 1.2 77
2018-01-16 10:00:00 7.7 7 Norte 12 Norte 0 1030.5 0.8 82
2018-01-16 09:00:00 7 10 Norte 15 Norte 0 1030.4 1 87
2018-01-16 08:00:00 7 7 Norte 14 Norte 0 1029.8 0.2 87
2018-01-16 07:00:00 7.1 10 Nordeste 14 Norte 0 1029.7 -0.1 85
2018-01-16 06:00:00 7.5 8 Norte 12 Norte 0 1029.4 -0.4 87
2018-01-16 05:00:00 7.7 7 Norte 11 Norte 0 1029.6 -0.1 86
2018-01-16 04:00:00 8.2 6 Norte 14 Norte 0 1029.8 -0.3 87
2018-01-16 03:00:00 8.9 6 Norte 11 Norte 0 1029.8 0 86
2018-01-16 02:00:00 8.6 9 Nordeste 12 Norte 0 1029.7 -0.1 86
2018-01-16 01:00:00 9 7 Norte 9 Norte 0 1030.1 0.8 82
2018-01-16 00:00:00 9.6 5 Norte 10 Norte 0 1029.8 1 76
2018-01-15 23:00:00 10 5 Norte 12 Norte 0 1029.8 1.8 73
2018-01-15 22:00:00 10.9 6 Nordeste 19 Nordeste 0 1029.3 2.3 67
2018-01-15 21:00:00 11.2 14 Nordeste 21 Nordeste 0 1028.8 2.6 67
2018-01-15 20:00:00 11.2 12 Nordeste 21 Norte 0 1028 2.2 69
2018-01-15 19:00:00 12 15 Norte 24 Nordeste 0 1027 1.6 66
2018-01-15 18:00:00 12.7 18 Norte 24 Nordeste 0 1026.2 1.3 61
2018-01-15 17:00:00 13.1 17 Nordeste 53 Norte 0 1025.8 0.5 62
2018-01-15 16:00:00 13.3 15 Nordeste 27 Nordeste 0 1025.4 -0.4 57
2018-01-15 15:00:00 13 19 Nordeste 27 Nordeste 0 1024.9 -0.9 60
2018-01-15 14:00:00 11.6 21 Norte 31 Nordeste 0 1025.3 -0.1 66
2018-01-15 13:00:00 11.1 21 Nordeste 34 Nordeste 0 1025.8 1.3 67
2018-01-15 12:00:00 10.1 25 Norte 34 Norte 0 1025.8 2 71
2018-01-15 11:00:00 9.4 23 Norte 33 Norte 0 1025.4 2.4 75
2018-01-15 10:00:00 7.4 14 Nordeste 29 Norte 0 1024.5 1.6 83
2018-01-15 09:00:00 6.7 22 Norte 38 Norte 0 1023.8 1.5 90
2018-01-15 08:00:00 7.5 23 Norte 31 Norte 0 1023 0.8 87
2018-01-15 07:00:00 8 21 Norte 28 Norte 0 1022.9 0.8 84
2018-01-15 06:00:00 8.2 16 Norte 23 Norte 0 1022.3 0.5 84
2018-01-15 05:00:00 8 12 Norte 17 Norte 0 1022.2 0.3 89
2018-01-15 04:00:00 8.4 14 Norte 17 Norte 0 1022.1 0 87
2018-01-15 03:00:00 8.2 9 Nordeste 14 Norte 0 1021.8 -0.3 84
2018-01-15 02:00:00 8.8 12 Norte 15 Norte 0 1021.9 0.3 80
2018-01-15 01:00:00 10.2 12 Norte 20 Norte 0 1022.1 0.9 71
2018-01-15 00:00:00 10.7 13 Norte 19 Norte 0 1022.1 1.3 69
2018-01-14 23:00:00 11.3 17 Norte 23 Norte 0 1021.6 1.3 67
2018-01-14 22:00:00 11.7 14 Noroeste 24 Noroeste 0 1021.2 1.5 65
2018-01-14 21:00:00 12.3 15 Norte 24 Noroeste 0 1020.8 1.2 65
2018-01-14 20:00:00 12.6 15 Noroeste 27 Noroeste 0 1020.3 0.9 59
2018-01-14 19:00:00 12.5 14 Noroeste 24 Noroeste 0 1019.7 0.5 59
2018-01-14 18:00:00 12.5 15 Noroeste 28 Noroeste 0 1019.6 0.4 60
2018-01-14 17:00:00 12.9 15 Noroeste 26 Noroeste 0 1019.4 -0.4 62
2018-01-14 16:00:00 12.7 14 Noroeste 30 Noroeste 0 1019.2 -1.1 66
2018-01-14 15:00:00 12.4 14 Noroeste 23 Noroeste 0 1019.2 -1.9 68
2018-01-14 14:00:00 11.9 13 Norte 20 Norte 0 1019.8 -1 74
2018-01-14 13:00:00 11.4 9 Norte 12 Norte 0 1020.3 -0.2 82
2018-01-14 12:00:00 11.3 0 Calma 7 Sudeste 1.1 1021.1 0.6 89
2018-01-14 11:00:00 11.1 2 Sur 6 Sur 2.3 1020.8 0.5 89
2018-01-14 10:00:00 10.6 3 Sudeste 16 Norte 1.7 1020.5 0.1 89
2018-01-14 09:00:00 10.7 5 Oeste 15 Noroeste 0.7 1020.5 -0.1 91
2018-01-14 08:00:00 11.1 7 Sudeste 11 Sudeste 0.3 1020.3 -0.5 92
2018-01-14 07:00:00 10.5 4 Sudoeste 12 Sudoeste 1.2 1020.4 -0.9 92
2018-01-14 06:00:00 10.4 6 Norte 16 Norte 0.5 1020.6 -1.1 92
2018-01-14 05:00:00 10.8 5 Sudeste 17 Este 0 1020.8 -1.3 91
2018-01-14 04:00:00 10.6 3 Este 4 Sudeste 0 1021.3 -1.4 90
2018-01-14 03:00:00 10.4 4 Este 6 Este 0 1021.7 -1.2 90
2018-01-14 02:00:00 10.5 3 Este 5 Este 0 1022.1 -0.8 88
2018-01-14 01:00:00 11.4 0 Calma 9 Noroeste 0 1022.7 0 86
2018-01-14 00:00:00 11.7 4 Noroeste 9 Oeste 0 1022.9 0.5 84
2018-01-13 23:00:00 11.1 4 Oeste 5 Oeste 0 1022.9 0.9 87
2018-01-13 22:00:00 11.4 2 Nordeste 24 Norte 1.2 1022.7 0.8 87
2018-01-13 21:00:00 12.2 9 Norte 18 Norte 0 1022.4 1.1 86
2018-01-13 20:00:00 12.4 3 Sudeste 6 Este 0 1022 1.1 82
2018-01-13 19:00:00 12.3 2 Oeste 9 Noroeste 0 1021.9 1.7 78
2018-01-13 18:00:00 13.4 8 Noroeste 28 Noroeste 0 1021.3 1.9 72
2018-01-13 17:00:00 13.7 19 Noroeste 34 Noroeste 0 1020.9 0.9 72
2018-01-13 16:00:00 14 21 Noroeste 35 Noroeste 0 1020.2 -0.7 77
2018-01-13 15:00:00 13.9 7 Sur 15 Sudoeste 0.1 1019.4 -1.8 84
2018-01-13 14:00:00 12.4 6 Sudoeste 34 Sudoeste 5.2 1020 -1.6 91
2018-01-13 13:00:00 13.4 21 Sudoeste 40 Sur 0.2 1020.9 0.2 86
2018-01-13 12:00:00 13.7 19 Sur 30 Sur 0 1021.2 -0.1 77
2018-01-13 11:00:00 11 14 Sudeste 18 Sudeste 0 1021.6 1 84
2018-01-13 10:00:00 10.2 12 Sudeste 16 Este 0 1020.7 0 85
2018-01-13 09:00:00 9.3 3 Este 11 Este 0 1021.3 0.8 87
2018-01-13 08:00:00 9 3 Este 9 Este 0 1020.6 -0.1 87
2018-01-13 07:00:00 8.8 3 Este 9 Este 0 1020.7 -0.4 87
2018-01-13 06:00:00 8.4 4 Nordeste 7 Nordeste 0 1020.5 -0.9 87
2018-01-13 05:00:00 8.8 5 Norte 8 Norte 0 1020.7 -1.1 87
2018-01-13 04:00:00 9.4 0 Calma 5 Norte 0 1021.1 -1.2 84
2018-01-13 03:00:00 9.5 0 Calma 4 Este 0 1021.4 -1.6 83
2018-01-13 02:00:00 9.5 2 Nordeste 7 Nordeste 0 1021.8 -1.2 82
2018-01-13 01:00:00 9.7 4 Nordeste 8 Este 0 1022.3 -1.1 78
2018-01-13 00:00:00 10.1 4 Nordeste 7 Nordeste 0 1023 -0.9 77
2018-01-12 23:00:00 10.6 5 Nordeste 8 Nordeste 0 1023 -0.9 76
2018-01-12 22:00:00 11.5 6 Norte 12 Norte 0 1023.4 0 75
2018-01-12 21:00:00 11.8 10 Norte 15 Norte 0 1023.9 0 75
2018-01-12 20:00:00 12.1 8 Norte 12 Nordeste 0 1023.9 0.1 69
2018-01-12 19:00:00 12.2 9 Norte 13 Norte 0 1023.4 -0.7 67
2018-01-12 18:00:00 12.7 8 Norte 16 Norte 0 1023.9 -0.5 65
2018-01-12 17:00:00 13.1 11 Norte 15 Norte 0 1023.8 -1.2 62
2018-01-12 16:00:00 13.1 10 Noroeste 34 Noroeste 0 1024.1 -1.9 65
2018-01-12 15:00:00 13.1 8 Noroeste 12 Noroeste 0 1024.4 -2.3 66
2018-01-12 14:00:00 12.2 6 Norte 10 Norte 0 1025 -2 74
2018-01-12 13:00:00 11.3 8 Norte 11 Norte 0 1026 -0.5 74
2018-01-12 12:00:00 11 4 Norte 6 Noroeste 0 1026.7 0.2 78
2018-01-12 11:00:00 10.3 3 Nordeste 6 Este 0 1027 1 87
2018-01-12 10:00:00 9.8 4 Nordeste 6 Este 0 1026.5 0.8 91
2018-01-12 09:00:00 8.3 0 Calma 9 Norte 0 1026.5 0.5 91
2018-01-12 08:00:00 8.5 6 Norte 9 Norte 0 1026 -0.4 90
2018-01-12 07:00:00 8.6 5 Nordeste 9 Nordeste 0 1025.7 -1 88
2018-01-12 06:00:00 8.9 4 Este 11 Nordeste 0 1026 -1 87
2018-01-12 05:00:00 9.5 8 Norte 13 Nordeste 0 1026.4 -1.1 85
2018-01-12 04:00:00 10.4 7 Nordeste 15 Noroeste 0 1026.7 -1.2 83
2018-01-12 03:00:00 12.1 10 Noroeste 18 Noroeste 0 1027 -1.2 82
2018-01-12 02:00:00 12.4 14 Noroeste 21 Noroeste 0 1027.5 -0.8 80
2018-01-12 01:00:00 12.8 14 Noroeste 23 Norte 0 1027.9 -0.2 77
2018-01-12 00:00:00 13.2 14 Noroeste 24 Noroeste 0 1028.2 0.4 74
2018-01-11 23:00:00 14 16 Noroeste 25 Noroeste 0 1028.3 0.9 69
2018-01-11 22:00:00 14.2 13 Noroeste 22 Noroeste 0 1028.1 0.9 67
2018-01-11 21:00:00 14.4 13 Noroeste 24 Noroeste 0 1027.8 1.1 69
2018-01-11 20:00:00 14.3 12 Noroeste 23 Noroeste 0 1027.4 0.4 68
2018-01-11 19:00:00 14.3 13 Noroeste 23 Oeste 0 1027.2 0 66
2018-01-11 18:00:00 14.5 13 Oeste 26 Oeste 0 1026.7 -0.8 65
2018-01-11 17:00:00 15.1 15 Noroeste 26 Oeste 0 1027 -1 63
2018-01-11 16:00:00 15 20 Noroeste 31 Noroeste 0 1027.2 -1.8 62
2018-01-11 15:00:00 14.8 18 Noroeste 30 Noroeste 0 1027.5 -2.2 62
2018-01-11 14:00:00 14.6 16 Noroeste 32 Noroeste 0 1028 -1.6 63
2018-01-11 13:00:00 14.1 20 Noroeste 34 Noroeste 0 1029 0.1 63
2018-01-11 12:00:00 13.8 16 Noroeste 28 Noroeste 0 1029.7 1.4 66
2018-01-11 11:00:00 12.9 2 Norte 4 Norte 0 1029.6 1.5 75
2018-01-11 10:00:00 11.7 2 Nordeste 6 Nordeste 0 1028.9 0.9 81
2018-01-11 09:00:00 11.2 5 Nordeste 12 Noroeste 0 1028.3 0.8 81
2018-01-11 08:00:00 11.7 8 Noroeste 15 Norte 0 1028.1 0.7 77
2018-01-11 07:00:00 12.1 13 Noroeste 17 Noroeste 0 1028 0.2 77
2018-01-11 06:00:00 12 8 Noroeste 19 Norte 0 1027.5 -0.1 75
2018-01-11 05:00:00 12.5 16 Norte 23 Noroeste 0 1027.4 0 74
2018-01-11 04:00:00 12.6 16 Noroeste 27 Noroeste 0 1027.8 0.4 71
2018-01-11 03:00:00 13.1 19 Noroeste 31 Noroeste 0 1027.6 0.1 72
2018-01-11 02:00:00 13.4 19 Noroeste 29 Noroeste 0 1027.4 0.4 71
2018-01-11 01:00:00 14.3 20 Noroeste 30 Noroeste 0 1027.4 1 69
2018-01-11 00:00:00 14.5 17 Noroeste 27 Noroeste 0 1027.5 1.7 71
2018-01-10 23:00:00 14.7 18 Noroeste 32 Noroeste 0 1027 1.2 69
2018-01-10 22:00:00 14.4 10 Noroeste 33 Noroeste 0.6 1026.4 1.2 85
2018-01-10 21:00:00 16 17 Oeste 33 Oeste 0 1025.8 0.9 78
2018-01-10 20:00:00 16.1 18 Oeste 37 Oeste 0 1025.8 1.1 76
2018-01-10 19:00:00 15.9 17 Oeste 31 Oeste 0 1025.2 0.9 77
2018-01-10 18:00:00 16.1 13 Sudoeste 25 Oeste 0 1024.9 0.5 78
2018-01-10 17:00:00 16.9 14 Sudoeste 25 Sudoeste 0 1024.7 0.2 76
2018-01-10 16:00:00 17.2 12 Oeste 29 Oeste 0 1024.3 -0.4 74
2018-01-10 15:00:00 16.6 13 Oeste 22 Sudoeste 0.2 1024.4 -0.8 77
2018-01-10 14:00:00 17 8 Oeste 15 Sudoeste 0 1024.5 -0.6 79
2018-01-10 13:00:00 15.5 5 Sur 9 Sur 0 1024.7 0.4 80
2018-01-10 12:00:00 14.6 4 Sudeste 8 Sudeste 0 1025.2 1.6 84
2018-01-10 11:00:00 13.7 5 Este 7 Este 0 1025.1 2.2 86
2018-01-10 10:00:00 13.1 3 Nordeste 5 Norte 0 1024.3 2.4 88
2018-01-10 09:00:00 12.9 5 Norte 7 Norte 0 1023.6 2.3 88
2018-01-10 08:00:00 13.4 4 Norte 20 Norte 0 1022.9 2.5 85
2018-01-10 07:00:00 13.6 14 Noroeste 24 Noroeste 0 1021.9 1.9 82
2018-01-10 06:00:00 13.8 15 Noroeste 24 Noroeste 0 1021.3 2.6 78
2018-01-10 05:00:00 14.1 15 Noroeste 27 Noroeste 0 1020.4 1.4 77
2018-01-10 04:00:00 14.6 18 Noroeste 31 Noroeste 0 1020 1.6 75
2018-01-10 03:00:00 14.7 12 Noroeste 24 Oeste 0 1018.7 1 82
2018-01-10 02:00:00 15 13 Oeste 22 Oeste 0 1019 1 87
2018-01-10 01:00:00 14.5 12 Oeste 43 Sur 0.5 1018.4 0 93
2018-01-10 00:00:00 13.7 32 Sur 68 Sur 1.6 1017.7 -0.3 94
2018-01-09 23:00:00 14.1 34 Sur 59 Sur 0 1018 -0.3 90
2018-01-09 22:00:00 14.3 28 Sur 59 Sur 0.1 1018.4 0.2 90
2018-01-09 21:00:00 13.9 35 Sur 61 Sur 0.1 1018 -1 90
2018-01-09 20:00:00 13.2 36 Sur 57 Sur 0.1 1018.3 -0.4 90
2018-01-09 19:00:00 12.9 25 Sur 45 Sur 2.9 1018.2 -0.4 93
2018-01-09 18:00:00 13.2 23 Sudoeste 46 Sur 5 1019 0 92
2018-01-09 17:00:00 13.4 24 Sur 42 Sudeste 1.3 1018.7 -1.1 91
2018-01-09 16:00:00 13.7 27 Sur 43 Sur 0.9 1018.6 -2.1 91
2018-01-09 15:00:00 13.5 31 Sur 42 Sur 0.7 1019 -2.2 90
2018-01-09 14:00:00 13.6 23 Sur 40 Sur 0.4 1019.8 -1.1 89
2018-01-09 13:00:00 13.5 23 Sur 39 Sur 0 1020.7 0 84
2018-01-09 12:00:00 13.8 19 Sur 34 Sur 0 1021.2 1.1 79
2018-01-09 11:00:00 13.7 16 Sur 26 Sudoeste 0 1020.9 1.2 71
2018-01-09 10:00:00 9.5 13 Sudeste 20 Sudeste 0 1020.7 1.2 85
2018-01-09 09:00:00 8.3 5 Este 13 Este 0 1020.1 1.2 87
2018-01-09 08:00:00 7.5 9 Este 14 Este 0 1019.7 0.7 87
2018-01-09 07:00:00 7.7 9 Este 14 Este 0 1019.5 1 88
2018-01-09 06:00:00 7.1 7 Este 13 Este 0 1018.9 1 87
2018-01-09 05:00:00 7.7 3 Este 8 Sudeste 0 1019 1.7 87
2018-01-09 04:00:00 7.9 5 Sudeste 10 Sudeste 0 1018.5 0.6 87
2018-01-09 03:00:00 8.1 6 Sudeste 10 Sudeste 0 1017.9 0.2 87
2018-01-09 02:00:00 8.6 8 Este 11 Este 0 1017.3 -0.4 86
2018-01-09 01:00:00 8.7 3 Este 9 Nordeste 0 1017.9 1.6 82
2018-01-09 00:00:00 9.2 8 Nordeste 10 Nordeste 0 1017.7 2.1 78
2018-01-08 23:00:00 9.9 5 Norte 9 Norte 0 1017.7 2.6 75
2018-01-08 22:00:00 9.8 5 Nordeste 15 Norte 0 1016.3 2.6 75
2018-01-08 21:00:00 10.2 9 Norte 17 Norte 0 1015.6 3.1 75
2018-01-08 20:00:00 10.4 11 Norte 22 Norte 0 1015.1 3.5 78
2018-01-08 19:00:00 10.4 15 Norte 26 Norte 0 1013.7 3 77
2018-01-08 18:00:00 10.3 18 Norte 24 Norte 0 1012.5 2.9 74
2018-01-08 17:00:00 10.3 18 Norte 25 Norte 0 1011.6 1.8 78
2018-01-08 16:00:00 10.2 17 Norte 25 Norte 0 1010.7 0.9 79
2018-01-08 15:00:00 9.3 20 Norte 32 Norte 0 1009.6 -0.2 86
2018-01-08 14:00:00 8.6 28 Norte 36 Norte 0 1009.8 0.2 90
2018-01-08 13:00:00 8.9 20 Norte 28 Noroeste 0 1009.8 1.4 86
2018-01-08 12:00:00 8.7 13 Norte 19 Norte 0 1009.8 2.4 84
2018-01-08 11:00:00 8.3 9 Norte 21 Norte 0 1009.6 3.2 84
2018-01-08 10:00:00 8.3 18 Norte 26 Norte 0 1008.4 2.5 87
2018-01-08 09:00:00 8.7 18 Norte 26 Norte 0 1007.4 2.1 87
2018-01-08 08:00:00 9.1 18 Norte 31 Noroeste 0.1 1006.4 1.4 83
2018-01-08 07:00:00 10.6 17 Noroeste 28 Noroeste 0.7 1005.9 1 78
2018-01-08 06:00:00 12.2 17 Oeste 32 Sudoeste 0 1005.3 0 61
2018-01-08 05:00:00 12.2 14 Sudoeste 35 Sur 0.3 1005 -0.8 64
2018-01-08 04:00:00 10.4 19 Sudeste 28 Sudeste 0 1004.9 -1.4 83
2018-01-08 03:00:00 10.2 22 Sudeste 29 Sudeste 0 1005.3 -1 84
2018-01-08 02:00:00 9.6 22 Sudeste 27 Sudeste 0 1005.8 -0.3 83
2018-01-08 01:00:00 9.8 15 Sudeste 18 Sudeste 0 1006.3 0.5 74
2018-01-08 00:00:00 9.9 14 Sudeste 20 Sudeste 0 1006.3 0.6 70
2018-01-07 23:00:00 10.2 5 Nordeste 12 Norte 0 1006.1 0.8 66
2018-01-07 22:00:00 11.5 10 Norte 16 Noroeste 0 1005.8 1 63
2018-01-07 21:00:00 11.6 8 Noroeste 12 Noroeste 0 1005.7 1.4 63
2018-01-07 20:00:00 11.6 7 Oeste 15 Oeste 0 1005.3 1.4 63
2018-01-07 19:00:00 11.1 6 Oeste 17 Oeste 0 1004.8 1.5 65
2018-01-07 18:00:00 11.2 9 Oeste 17 Oeste 0 1004.3 1.1 63
2018-01-07 17:00:00 11.5 12 Oeste 23 Sudoeste 0 1003.9 0.5 61
2018-01-07 16:00:00 11.6 13 Oeste 21 Sudoeste 0 1003.3 -0.6 62
2018-01-07 15:00:00 11.5 13 Oeste 19 Oeste 0 1003.2 -1.3 61
2018-01-07 14:00:00 11.5 9 Oeste 15 Sudoeste 0 1003.4 -0.9 63
2018-01-07 13:00:00 11.1 2 Sudoeste 11 Oeste 0 1003.9 0.4 65
2018-01-07 12:00:00 10 4 Nordeste 10 Nordeste 0 1004.5 1.4 67
2018-01-07 11:00:00 9 8 Norte 11 Norte 0 1004.3 1.3 72
2018-01-07 10:00:00 9 5 Norte 16 Nordeste 0 1003.5 1 72
2018-01-07 09:00:00 8.8 9 Norte 30 Norte 0 1003.1 0.4 72
2018-01-07 08:00:00 9.5 15 Noroeste 31 Noroeste 0 1003 -0.2 66
2018-01-07 07:00:00 9.6 17 Noroeste 29 Noroeste 0 1002.5 -1 67
2018-01-07 06:00:00 9.6 12 Noroeste 26 Noroeste 0 1002.7 -0.8 71
2018-01-07 05:00:00 9.7 17 Noroeste 25 Noroeste 0 1003.2 -0.3 69
2018-01-07 04:00:00 10 15 Norte 28 Noroeste 0 1003.5 -0.5 67
2018-01-07 03:00:00 9.9 19 Noroeste 30 Noroeste 0 1003.5 -0.8 63
2018-01-07 02:00:00 10.2 15 Noroeste 28 Noroeste 0 1003.5 -1.1 59
2018-01-07 01:00:00 10.6 18 Noroeste 27 Noroeste 0 1004 -0.5 58
2018-01-07 00:00:00 11.1 22 Noroeste 34 Noroeste 0 1004.3 -0.1 54
2018-01-06 23:00:00 11.6 21 Noroeste 32 Noroeste 0 1004.6 0.2 52
2018-01-06 22:00:00 11.9 21 Noroeste 37 Noroeste 0 1004.5 0.6 47
2018-01-06 21:00:00 12.1 16 Noroeste 32 Noroeste 0 1004.4 0.6 45
2018-01-06 20:00:00 12.4 19 Noroeste 34 Noroeste 0 1004.4 1 44
2018-01-06 19:00:00 12.7 21 Noroeste 33 Noroeste 0 1003.9 1 43
2018-01-06 18:00:00 12.8 24 Noroeste 45 Noroeste 0 1003.8 1 42
2018-01-06 17:00:00 13 21 Noroeste 39 Noroeste 0 1003.4 0.5 45
2018-01-06 16:00:00 12.9 23 Noroeste 39 Noroeste 0 1002.9 -0.2 50
2018-01-06 15:00:00 12.6 23 Noroeste 34 Noroeste 0 1002.8 -0.3 54
2018-01-06 14:00:00 12.1 24 Noroeste 40 Noroeste 0 1002.9 0.3 61
2018-01-06 13:00:00 11.7 22 Noroeste 46 Noroeste 0 1003.1 1 61
2018-01-06 12:00:00 11.3 24 Noroeste 43 Noroeste 0 1003.1 1.5 69
2018-01-06 11:00:00 10.7 29 Noroeste 38 Noroeste 0 1002.6 1.6 74
2018-01-06 10:00:00 9.7 11 Noroeste 19 Norte 0.3 1002.1 2 88
2018-01-06 09:00:00 9.4 17 Norte 31 Norte 0.1 1001.6 2.1 88
2018-01-06 08:00:00 9.4 23 Norte 36 Norte 0 1001 0.8 90
2018-01-06 07:00:00 9.7 29 Norte 48 Norte 0 1000.1 -0.6 88
2018-01-06 06:00:00 9.4 38 Norte 53 Norte 0.9 999.5 -2.1 93
2018-01-06 05:00:00 9.8 37 Norte 48 Noroeste 1.4 1000.2 -2.2 93
2018-01-06 04:00:00 11.7 9 Noroeste 19 Noroeste 4.8 1000.7 -3.3 91
2018-01-06 03:00:00 12.2 8 Oeste 37 Sudoeste 4.2 1001.6 -3.5 91
2018-01-06 02:00:00 12.3 23 Sudoeste 45 Sudoeste 9.4 1002.4 -4.5 91
2018-01-06 01:00:00 15.3 21 Sur 31 Sur 0 1004 -3.8 80
2018-01-06 00:00:00 15.3 14 Sudoeste 32 Sudoeste 0 1005.1 -3.8 78
2018-01-05 23:00:00 15.2 18 Sudoeste 31 Sudoeste 0 1006.9 -2.6 84
2018-01-05 22:00:00 15.2 22 Sudoeste 44 Sudoeste 5.4 1007.8 -2.6 89
2018-01-05 21:00:00 15.1 26 Sudoeste 44 Sur 0.7 1008.9 -2.6 81
2018-01-05 20:00:00 15.8 22 Sur 44 Sur 0 1009.5 -2.9 78
2018-01-05 19:00:00 15.9 27 Sur 44 Sur 0 1010.4 -3 75
2018-01-05 18:00:00 15.8 27 Sur 39 Sur 0 1011.5 -2.4 72
2018-01-05 17:00:00 15.9 22 Sudoeste 38 Sudoeste 0 1012.4 -3.1 70
2018-01-05 16:00:00 16.4 15 Sudoeste 31 Sudoeste 0 1013.4 -3.6 67
2018-01-05 15:00:00 16.6 14 Sudoeste 27 Sudoeste 0 1013.9 -4.7 68
2018-01-05 14:00:00 16.7 15 Sudoeste 28 Sudoeste 0 1015.5 -4.2 68
2018-01-05 13:00:00 16.8 15 Sudoeste 27 Sudoeste 0 1017 -3 65
2018-01-05 12:00:00 16.2 11 Sudoeste 26 Sudoeste 0 1018.6 -1.7 67
2018-01-05 11:00:00 16.1 13 Sudoeste 26 Oeste 0 1019.7 -1 66
2018-01-05 10:00:00 16 13 Sudoeste 24 Sudoeste 0 1020 -1.1 68
2018-01-05 09:00:00 15.7 10 Sudoeste 21 Sudoeste 0 1020.3 -1 71
2018-01-05 08:00:00 15.6 14 Sudoeste 26 Sudoeste 0 1020.7 -1.2 67
2018-01-05 07:00:00 15 12 Oeste 24 Oeste 0 1021.1 -1.5 78
2018-01-05 06:00:00 15.4 5 Oeste 15 Oeste 0 1021.3 -2.1 82
2018-01-05 05:00:00 15.6 4 Sudoeste 8 Oeste 0 1021.9 -2.3 78
2018-01-05 04:00:00 15.2 4 Oeste 12 Oeste 0 1022.6 -2.8 77
2018-01-05 03:00:00 15.3 7 Oeste 15 Oeste 0 1023.4 -2.7 81
2018-01-05 02:00:00 14.5 2 Norte 8 Noroeste 0 1024.2 -2.5 87
2018-01-05 01:00:00 14.7 4 Sudoeste 7 Sudoeste 0 1025.4 -1.9 87
2018-01-05 00:00:00 14.8 0 Calma 5 Sudoeste 0 1026.1 -1.4 85
2018-01-04 23:00:00 14.4 3 Sudoeste 5 Sudoeste 0 1026.7 -1.1 85
2018-01-04 22:00:00 14.4 3 Norte 15 Norte 0 1027.3 -0.5 85
2018-01-04 21:00:00 14.7 9 Noroeste 21 Noroeste 0 1027.5 0 82
2018-01-04 20:00:00 15 15 Noroeste 23 Noroeste 0 1027.8 0 78
2018-01-04 19:00:00 15.1 9 Noroeste 15 Noroeste 0 1027.8 -0.5 84
2018-01-04 18:00:00 15 8 Oeste 12 Oeste 0 1027.5 -1.3 84
2018-01-04 17:00:00 15.4 6 Oeste 11 Noroeste 0 1027.8 -1.7 82
2018-01-04 16:00:00 15.7 6 Noroeste 16 Oeste 0 1028.3 -2 82
2018-01-04 15:00:00 16 9 Norte 17 Noroeste 0 1028.8 -2.3 70
2018-01-04 14:00:00 16 12 Noroeste 18 Noroeste 0 1029.5 -1.7 69
2018-01-04 13:00:00 15.9 9 Noroeste 17 Noroeste 0 1030.3 -0.4 72
2018-01-04 12:00:00 15.5 7 Noroeste 16 Noroeste 0 1031.1 0.8 79
2018-01-04 11:00:00 14.7 11 Noroeste 22 Noroeste 0 1031.2 1.2 81
2018-01-04 10:00:00 13.9 16 Noroeste 23 Noroeste 0 1030.7 0.9 82
2018-01-04 09:00:00 12.8 16 Noroeste 24 Noroeste 0 1030.3 0.7 88
2018-01-04 08:00:00 12.5 18 Noroeste 23 Noroeste 0 1030 0.2 89
2018-01-04 07:00:00 12.4 12 Noroeste 23 Norte 0 1029.8 -0.3 88
2018-01-04 06:00:00 12.5 19 Norte 23 Norte 0 1029.6 -0.8 88
2018-01-04 05:00:00 12.9 19 Norte 24 Norte 0 1029.8 -1 87
2018-01-04 04:00:00 13.2 21 Norte 26 Norte 0 1030.1 -0.9 85
2018-01-04 03:00:00 13.1 18 Norte 26 Norte 0 1030.4 -1 84
2018-01-04 02:00:00 13.5 19 Norte 27 Norte 0 1030.8 -0.9 84
2018-01-04 01:00:00 13.6 21 Norte 25 Norte 0 1031 -0.8 81
2018-01-04 00:00:00 14.3 18 Noroeste 22 Norte 0 1031.4 -0.3 79
2018-01-03 23:00:00 14.8 16 Noroeste 21 Noroeste 0 1031.7 0.1 79
2018-01-03 22:00:00 14.9 14 Noroeste 25 Noroeste 0 1031.8 0.7 79
2018-01-03 21:00:00 15.3 17 Noroeste 23 Noroeste 0 1031.7 0.3 75
2018-01-03 20:00:00 15.4 12 Noroeste 22 Norte 0 1031.6 0.4 76
2018-01-03 19:00:00 16.2 19 Norte 26 Norte 0 1031.1 -0.3 72
2018-01-03 18:00:00 16.5 22 Norte 34 Norte 0 1031.4 -0.2 71
2018-01-03 17:00:00 16.5 25 Norte 33 Norte 0 1031.2 -1.4 71
2018-01-03 16:00:00 16.9 21 Norte 31 Norte 0 1031.4 -1.9 69
2018-01-03 15:00:00 16.7 23 Norte 30 Norte 0 1031.6 -2.2 69
2018-01-03 14:00:00 16.7 18 Norte 31 Norte 0 1032.6 -1.6 69
2018-01-03 13:00:00 16.2 29 Norte 40 Norte 0 1033.3 -0.5 69
2018-01-03 12:00:00 15.6 22 Norte 33 Norte 0 1033.8 0.7 73
2018-01-03 11:00:00 14.2 19 Norte 29 Norte 0 1034.2 1.1 78
2018-01-03 10:00:00 12.6 22 Norte 33 Norte 0 1033.8 1.3 83
2018-01-03 09:00:00 12.3 22 Norte 37 Norte 0 1033.1 0.9 81
2018-01-03 08:00:00 11.9 24 Norte 35 Norte 0 1033.1 0.7 82
2018-01-03 07:00:00 12.2 27 Norte 35 Norte 0 1032.5 -0.5 82
2018-01-03 06:00:00 12.5 25 Norte 33 Norte 0 1032.2 -0.9 80
2018-01-03 05:00:00 12.7 25 Norte 32 Norte 0 1032.4 -0.7 78
2018-01-03 04:00:00 12.6 20 Norte 24 Norte 0 1033 -0.5 80
2018-01-03 03:00:00 12.8 14 Norte 31 Norte 0 1033.1 -0.7 76
2018-01-03 02:00:00 13.1 21 Norte 26 Norte 0 1033.1 -0.8 78
2018-01-03 01:00:00 14 21 Norte 25 Norte 0 1033.5 -0.6 75
2018-01-03 00:00:00 13.9 14 Norte 18 Norte 0 1033.8 -0.4 75
2018-01-02 23:00:00 14 8 Noroeste 12 Norte 0 1033.9 -0.3 75
2018-01-02 22:00:00 14.1 9 Noroeste 13 Noroeste 0 1034.1 0.5 76
2018-01-02 21:00:00 14 9 Noroeste 12 Noroeste 0 1034.2 0.9 76
2018-01-02 20:00:00 14.4 9 Norte 16 Noroeste 0 1034.2 1 75
2018-01-02 19:00:00 14.6 12 Noroeste 21 Noroeste 0 1033.6 0.4 73
2018-01-02 18:00:00 15.1 15 Norte 27 Norte 0 1033.3 -0.1 68
2018-01-02 17:00:00 15.3 20 Norte 28 Norte 0 1033.2 -0.6 67
2018-01-02 16:00:00 15.4 22 Norte 30 Norte 0 1033.2 -1.7 63
2018-01-02 15:00:00 15.2 19 Norte 25 Norte 0 1033.4 -2.5 66
2018-01-02 14:00:00 14.4 17 Norte 24 Norte 0 1033.8 -2.1 68
2018-01-02 13:00:00 13.7 19 Norte 26 Norte 0 1034.9 -0.1 69
2018-01-02 12:00:00 12.6 18 Norte 28 Norte 0 1035.9 1.4 72
2018-01-02 11:00:00 11.8 19 Norte 28 Norte 0 1035.9 1.8 74
2018-01-02 10:00:00 11.8 21 Norte 27 Norte 0 1035 1.2 77
2018-01-02 09:00:00 11.3 19 Norte 24 Norte 0 1034.5 0.7 77
2018-01-02 08:00:00 11 15 Norte 21 Norte 0 1034.1 0 75
2018-01-02 07:00:00 11.1 16 Norte 22 Norte 0 1033.8 -0.2 74
2018-01-02 06:00:00 11.2 15 Norte 21 Norte 0 1033.8 -0.3 72
2018-01-02 05:00:00 11.5 16 Norte 22 Norte 0 1034.1 -0.1 71
2018-01-02 04:00:00 11.8 21 Norte 25 Norte 0 1034 -0.5 73
2018-01-02 03:00:00 12.1 18 Norte 22 Norte 0 1034.1 -0.5 70
2018-01-02 02:00:00 12.8 19 Norte 24 Norte 0 1034.2 -0.1 71
2018-01-02 01:00:00 13.2 17 Norte 23 Norte 0 1034.5 -0.2 68
2018-01-02 00:00:00 12.6 10 Noroeste 14 Norte 0 1034.6 0.4 75
2018-01-01 23:00:00 12.3 7 Norte 13 Norte 0 1034.3 0.1 75
2018-01-01 22:00:00 14 8 Noroeste 12 Norte 0 1034.7 1 77
2018-01-01 21:00:00 14 8 Noroeste 14 Norte 0 1034.2 0.9 71
2018-01-01 20:00:00 14.3 8 Noroeste 15 Norte 0 1034.2 0.9 72
2018-01-01 19:00:00 14.9 12 Norte 18 Norte 0 1033.7 0.7 60
2018-01-01 18:00:00 15.1 15 Norte 26 Norte 0 1033.3 -0.3 54
2018-01-01 17:00:00 15.3 18 Norte 26 Norte 0 1033.3 -1.1 60
2018-01-01 16:00:00 15.2 19 Norte 25 Norte 0 1033 -2.3 58
2018-01-01 15:00:00 15.4 18 Norte 25 Norte 0 1033.6 -1.9 59
2018-01-01 14:00:00 14.5 19 Norte 31 Norte 0 1034.4 -1 64
2018-01-01 13:00:00 13.5 24 Norte 30 Norte 0 1035.3 0.6 74
2018-01-01 12:00:00 12.3 23 Norte 28 Norte 0 1035.5 1.2 80
2018-01-01 11:00:00 11.1 16 Norte 25 Norte 0 1035.4 1.9 81
2018-01-01 10:00:00 10.8 13 Norte 28 Norte 0 1034.7 2.3 80
2018-01-01 09:00:00 11.5 25 Norte 38 Norte 0 1034.3 1.8 81
2018-01-01 08:00:00 11.7 29 Norte 33 Norte 0 1033.5 0.9 79
2018-01-01 07:00:00 12.4 14 Noroeste 20 Noroeste 0 1032.4 -0.4 78
2018-01-01 06:00:00 12.2 11 Noroeste 15 Noroeste 0 1032.5 -0.2 78
2018-01-01 05:00:00 11.7 3 Noroeste 15 Norte 0 1032.6 -0.5 84
2018-01-01 04:00:00 12.2 13 Norte 16 Norte 0 1032.8 -0.6 84
2018-01-01 03:00:00 12.8 10 Nordeste 15 Norte 0 1032.7 -0.6 79
2018-01-01 02:00:00 14.1 12 Norte 22 Norte 0 1033.1 1 77
2018-01-01 01:00:00 14.5 12 Noroeste 27 Norte 0 1033.4 1.3 76
2018-01-01 00:00:00 14.8 21 Norte 32 Noroeste 0 1033.3 1.7 77
2017-12-31 23:00:00 15.4 20 Noroeste 31 Noroeste 0 1032.1 1.6 78
2017-12-31 22:00:00 16.4 15 Noroeste 27 Noroeste 0 1032.1 2.6 78
2017-12-31 21:00:00 16.9 13 Noroeste 23 Oeste 0 1031.6 2.8 79
2017-12-31 20:00:00 17 10 Oeste 22 Oeste 0 1030.5 2.3 81
2017-12-31 19:00:00 16.9 13 Oeste 24 Sudoeste 0 1029.5 1.3 81
2017-12-31 18:00:00 17.2 13 Oeste 24 Oeste 0 1028.8 1.1 78
2017-12-31 17:00:00 18 13 Sudoeste 30 Sudoeste 0 1028.2 -0.1 74
2017-12-31 16:00:00 17.9 12 Oeste 22 Sudoeste 0 1028.2 -0.7 73
2017-12-31 15:00:00 18.3 10 Sudoeste 19 Oeste 0 1027.7 -1.3 70
2017-12-31 14:00:00 18 10 Oeste 16 Sudoeste 0 1028.3 -0.3 72
2017-12-31 13:00:00 18.1 8 Sudoeste 25 Sudoeste 0 1028.9 -- 69
2017-12-31 12:00:00 17.7 8 Sudoeste 13 Sudoeste 0 1029 1.6 70
2017-12-31 11:00:00 16.3 4 Oeste 10 Oeste 0 1028.6 1.8 85
2017-12-31 10:00:00 -- 6 Oeste 10 Oeste 0 -- -- --
2017-12-31 09:00:00 15.3 7 Oeste 13 Oeste 0 1027.4 2 88
2017-12-31 08:00:00 15.3 5 Oeste 11 Sudoeste 0 1026.8 0.9 88
2017-12-31 07:00:00 15.3 6 Sudoeste 16 Sur 0 1025.9 -0.3 88
2017-12-31 06:00:00 15 7 Sur 16 Sur 0 1025.4 -1 91
2017-12-31 05:00:00 14.5 5 Sur 11 Sudoeste 0 1025.9 -0.9 93
2017-12-31 04:00:00 14.3 5 Sudoeste 11 Sudeste 0 1026.2 -0.6 93
2017-12-31 03:00:00 14.4 8 Sudeste 12 Sudeste 0 1026.4 -0.3 93
2017-12-31 02:00:00 14.1 6 Sur 12 Sur 0 1026.8 0.1 93
2017-12-31 01:00:00 14.1 6 Sudeste 8 Sudeste 0 1026.8 -0.2 93